首页
METAR-TAF:

METAR-TAF

机场 :

华沙肖邦机场

华沙, 波兰

纬度: 52-10N, 经度: 020-58E, 海拔: 106米

当前天气观测

该预报发布于44分钟前的22:30 UTC
风速13节,风向西北
温度 0°C
湿度 80%
气压 1020 hPa
能见度10公里或以上
1500米以下无云,无积雨云

METAR: EPWA 262230Z 31013KT CAVOK 00/M03 Q1020 NOSIG

时间: 00:14 (23:14 UTC)

预报

该预报发布于2小时和44分钟前的20:30 UTC
预报有效从26日的 21点(UTC)到 27日的 21点(UTC)
风速10节,风向西北
能见度10公里或以上
1500米以下无云,无积雨云
几率 40%
从 27日的 01点(UTC)到 27日的 07点(UTC)
多云层高于500英尺
成为
从 27日的 16点(UTC)到 27日的 18点(UTC)
多云层高于1200英尺
小雨

TAF: EPWA 262030Z 2621/2721 32010KT CAVOK PROB40 2701/2707 BKN005 BECMG 2716/2718 -RA BKN012

超过4000个机场的气象观测和天气预报(METAR&TAF报告)。

可查询的气象台以黄色和红色小点在地图上表示。

将鼠标移到小点上方,可查看气象台名称。

然后点击查看天气观测和预报。

如需切换地图:点击带黑十字的绿色按钮放大地图;点击带横线的绿色按钮缩小地图;或者点击绿色箭头查看邻近地区的地图。


METAR-TAF: